Portada
METAR-TAF:

METAR-TAF

Aeroports :

Gabès, Tunísia

latitud: 33-53N, longitud: 010-06E, altitud: 4 m

Observació

L'informe es va fer fa 33 minuts, a les 18:00 UTC
Vent 12 kt del Est
Temperatura 27°C
Humitat 42%
Pressió 1013 hPa
Visibilitat 10 km o més
sense núvols per sota de 1500 mi sense presència de cumulonimbus.

METAR: DTTG 251800Z 09012KT CAVOK 27/13 Q1013 NOSIG

Hora: 19:33 (18:33 UTC)

Pronòstic

L'informe es va fer fa 30 hores i 33 minuts, a les 12:00 UTC
Pronòstic vàlid del 24 a les 13 UTC al 24 a les 22 UTC
Vent 13 kt del Est
Visibilitat 10 km o més
sense núvols per sota de 1500 mi sense presència de cumulonimbus.

TAF: DTTG 241200Z 2413/2422 09013KT CAVOK

Observacions i pronòstics meteorològics de més de 4000 aeroports (METAR i TAF).

Les estacions disponibles són els punts grocs i vermells al mapa.

Posi el ratolí al punt desitjat per veure el nom de l'estació.

Feu clic per veure les observacions i els pronòstics meteorològics.

Per canviar el mapa: feu clic els botons verds amb una creu de color negre per apropar; al botó verd amb un guió per allunyar la imatge; o en les fletxes verdes per a mapes adjacents.


METAR-TAF: